Terminal Aerodrome Forecast
Issued by NWS Green Bay, WI

Home | Current Version | Previous Version | Graphics & Text | Print | Product List | Glossary On
Versions: 1 2 3 4 5 6 7 8 9 10 11 12 13 14 15 16 17 18 19 20 21 22 23 24 25
000
FTUS43 KGRB 081743 CCB
TAFGRB
TAF COR
KGRB 081743Z 0818/0918 28009G15KT P6SM BKN035
      TEMPO 0818/0822 -SHSN BKN025
     FM082200 25007KT P6SM OVC030
      TEMPO 0822/0824 6SM -SN BKN018
     FM090000 24005KT 1 1/2SM -SN OVC025
     FM090300 30004KT 1SM -SN OVC012
      TEMPO 0903/0907 1/2SM SN OVC007
     FM090700 34007KT 6SM -SN OVC020
     FM091200 35012KT P6SM BKN035
     FM091600 34014G23KT P6SM BKN060=

USA.gov is the U.S. government's official web portal to all federal, state and local government web resources and services.